Terminal Aerodrome Forecast
Issued by NWS

Home | Current Version | Previous Version | Text Only | Print | Product List | Glossary On
Versions: 1 2 3 4 5 6 7 8 9 10 11 12 13 14 15 16 17 18 19 20 21 22 23 24 25 26 27 28
000
FTUS41 KBUF 060541
TAFJHW
TAF
KJHW 060541Z 0606/0706 09004KT 5SM -SHRA FEW020 SCT080 OVC120
     FM061100 11005KT 6SM -SHRA OVC007
     FM061400 12006KT P6SM VCSH OVC015
     FM061900 VRB03KT P6SM BKN020
     FM070000 VRB03KT P6SM BKN030
     FM070200 VRB03KT P6SM BKN120
     FM070300 12004KT P6SM BKN120
     FM070500 VRB03KT P6SM BKN025
      AMD LTD TO CLD VIS AND WIND=

USA.gov is the U.S. government's official web portal to all federal, state and local government web resources and services.